Time;durP1;ratioP1;P1;durP2;ratioP2;P2;SDS_P1;SDS_P2;PMS_P1;PMS_P2;Temp;Humidity;BMP_temperature;BMP_pressure;BME280_temperature;BME280_humidity;BME280_pressure;Samples;Min_cycle;Max_cycle;Signal;HPM_P1;HPM_P2
2022/10/22 00:01:49;;;;;;;26.13;19.13;;;7.50;99.90;;;;;;4823314;29;20042;-71
2022/10/22 00:04:16;;;;;;;30.00;19.73;;;7.50;99.90;;;;;;4822035;29;20050;-70
2022/10/22 00:06:44;;;;;;;33.60;19.45;;;7.50;99.90;;;;;;4808623;29;20290;-70
2022/10/22 00:09:11;;;;;;;29.15;19.85;;;7.50;99.90;;;;;;4818786;29;20187;-71
2022/10/22 00:11:38;;;;;;;30.52;19.60;;;7.50;99.90;;;;;;4822789;29;20546;-71
2022/10/22 00:14:05;;;;;;;27.15;19.70;;;7.50;99.90;;;;;;4823528;29;20046;-71
2022/10/22 00:16:34;;;;;;;26.67;18.65;;;7.60;99.90;;;;;;4822061;29;20046;-71
2022/10/22 00:19:01;;;;;;;24.67;18.13;;;7.60;99.90;;;;;;4821998;29;20058;-71
2022/10/22 00:21:29;;;;;;;24.83;18.55;;;7.60;99.90;;;;;;4821916;29;20049;-72
2022/10/22 00:23:56;;;;;;;28.52;18.17;;;7.70;99.90;;;;;;4822988;29;20066;-71
2022/10/22 00:26:23;;;;;;;28.00;18.45;;;7.70;99.90;;;;;;4822397;29;20058;-71
2022/10/22 00:28:50;;;;;;;26.05;18.15;;;7.70;99.90;;;;;;4819407;29;20062;-71
2022/10/22 00:31:18;;;;;;;24.73;17.60;;;7.60;99.90;;;;;;4809126;29;20054;-71
2022/10/22 00:33:47;;;;;;;22.35;16.80;;;7.60;99.90;;;;;;4822620;29;20046;-71
2022/10/22 00:36:15;;;;;;;29.65;19.48;;;7.60;99.90;;;;;;4820937;29;20062;-71
2022/10/22 00:38:42;;;;;;;26.80;18.33;;;7.60;99.90;;;;;;4815518;29;20054;-71
2022/10/22 00:41:09;;;;;;;25.10;17.35;;;7.50;99.90;;;;;;4816259;29;20062;-71
2022/10/22 00:43:55;;;;;;;26.95;18.33;;;7.50;99.90;;;;;;4822194;29;20080;-71
2022/10/22 00:46:22;;;;;;;26.33;18.05;;;7.40;99.90;;;;;;4822895;29;20057;-71
2022/10/22 00:48:52;;;;;;;26.55;18.10;;;7.40;99.90;;;;;;4822238;29;20054;-71
2022/10/22 00:51:21;;;;;;;25.85;18.50;;;7.40;99.90;;;;;;4822015;29;20065;-71
2022/10/22 00:53:52;;;;;;;25.85;17.45;;;7.40;99.90;;;;;;4822020;29;20057;-71
2022/10/22 00:56:20;;;;;;;26.95;18.85;;;7.40;99.90;;;;;;4822436;29;20054;-71
2022/10/22 00:58:52;;;;;;;26.88;18.92;;;7.40;99.90;;;;;;4821640;29;20049;-71
2022/10/22 01:01:23;;;;;;;31.25;19.98;;;7.50;99.90;;;;;;4822637;29;20050;-71
2022/10/22 01:03:52;;;;;;;27.02;19.30;;;7.50;99.90;;;;;;4821483;29;20097;-71
2022/10/22 01:06:24;;;;;;;27.23;19.15;;;7.50;99.90;;;;;;4807641;29;20542;-71
2022/10/22 01:09:00;;;;;;;32.20;20.55;;;7.50;99.90;;;;;;4822379;29;20565;-70
2022/10/22 01:11:35;;;;;;;28.42;18.40;;;7.50;99.90;;;;;;4820059;29;20157;-70
2022/10/22 01:14:18;;;;;;;30.17;19.10;;;7.50;99.90;;;;;;4820869;29;20109;-71
2022/10/22 01:16:53;;;;;;;34.80;19.25;;;7.50;99.90;;;;;;4821153;29;20122;-71
2022/10/22 01:19:48;;;;;;;29.70;17.77;;;7.50;99.90;;;;;;4822903;29;20077;-70
2022/10/22 01:22:24;;;;;;;29.27;18.30;;;7.50;99.90;;;;;;4819979;29;20056;-71
2022/10/22 01:24:58;;;;;;;33.50;19.20;;;7.50;99.90;;;;;;4821405;29;20576;-71
2022/10/22 01:27:48;;;;;;;26.60;17.23;;;7.50;99.90;;;;;;4819372;29;20502;-71
2022/10/22 01:30:18;;;;;;;32.25;17.88;;;7.50;99.90;;;;;;4817917;29;20058;-71
2022/10/22 01:32:48;;;;;;;31.85;18.65;;;7.60;99.90;;;;;;4820139;29;20050;-70
2022/10/22 01:35:22;;;;;;;32.38;20.48;;;7.60;99.90;;;;;;4820130;29;20455;-70
2022/10/22 01:37:52;;;;;;;30.30;19.25;;;7.60;99.90;;;;;;4820282;29;20054;-71
2022/10/22 01:40:21;;;;;;;34.38;21.80;;;7.60;99.90;;;;;;4821797;29;20073;-70
2022/10/22 01:42:59;;;;;;;33.00;20.83;;;7.60;99.90;;;;;;4820942;29;20392;-70
2022/10/22 01:45:30;;;;;;;33.13;19.67;;;7.60;99.90;;;;;;4822057;29;20062;-71
2022/10/22 01:48:08;;;;;;;29.63;19.65;;;7.60;99.90;;;;;;4820955;29;20054;-71
2022/10/22 01:50:51;;;;;;;30.55;19.95;;;7.70;99.90;;;;;;4818177;29;20070;-70
2022/10/22 01:53:30;;;;;;;30.50;19.95;;;7.70;99.90;;;;;;4808234;29;20058;-71
2022/10/22 01:56:14;;;;;;;35.05;20.60;;;7.70;99.90;;;;;;4821043;29;20062;-71
2022/10/22 01:58:58;;;;;;;37.10;21.85;;;7.70;99.90;;;;;;4821129;29;20592;-71
2022/10/22 02:01:32;;;;;;;30.02;20.83;;;7.70;99.90;;;;;;4821625;29;20054;-71
2022/10/22 02:04:06;;;;;;;37.83;22.55;;;7.70;99.90;;;;;;4822235;29;20058;-71
2022/10/22 02:06:36;;;;;;;30.95;21.23;;;7.70;99.90;;;;;;4820900;29;20054;-71
2022/10/22 02:09:04;;;;;;;30.80;21.60;;;7.70;99.90;;;;;;4814366;29;20054;-71
2022/10/22 02:11:31;;;;;;;29.25;20.23;;;7.70;99.90;;;;;;4801227;29;20059;-71
2022/10/22 02:14:03;;;;;;;31.25;20.52;;;7.70;99.90;;;;;;4818176;29;20615;-72
2022/10/22 02:16:35;;;;;;;33.35;21.10;;;7.70;99.90;;;;;;4803738;29;20090;-70
2022/10/22 02:19:09;;;;;;;32.53;21.48;;;7.70;99.90;;;;;;4806020;29;20046;-70
2022/10/22 02:21:36;;;;;;;33.30;21.23;;;7.70;99.90;;;;;;4821217;29;20118;-70
2022/10/22 02:24:04;;;;;;;35.08;21.13;;;7.70;99.90;;;;;;4822832;29;20198;-70
2022/10/22 02:26:35;;;;;;;33.95;21.60;;;7.70;99.90;;;;;;4825203;29;20145;-70
2022/10/22 02:29:08;;;;;;;28.95;19.10;;;7.70;99.90;;;;;;4824599;29;20078;-70
2022/10/22 02:31:40;;;;;;;37.15;22.83;;;7.60;99.90;;;;;;4824639;29;20519;-70
2022/10/22 02:34:12;;;;;;;29.83;19.70;;;7.70;99.90;;;;;;4822090;29;20431;-70
2022/10/22 02:36:41;;;;;;;32.45;20.65;;;7.70;99.90;;;;;;4824402;29;20054;-70
2022/10/22 02:39:11;;;;;;;31.63;20.63;;;7.70;99.90;;;;;;4823633;29;20522;-72
2022/10/22 02:41:38;;;;;;;33.08;22.02;;;7.70;99.90;;;;;;4823378;29;20535;-77
2022/10/22 02:44:09;;;;;;;30.70;20.73;;;7.70;99.90;;;;;;4838912;29;20060;-76
2022/10/22 02:46:39;;;;;;;38.75;22.98;;;7.70;99.90;;;;;;4824075;29;20062;-76
2022/10/22 02:49:06;;;;;;;31.17;21.35;;;7.70;99.90;;;;;;4824352;29;20065;-77
2022/10/22 02:51:35;;;;;;;30.58;19.92;;;7.70;99.90;;;;;;4823915;29;20066;-76
2022/10/22 02:54:02;;;;;;;30.70;21.40;;;7.70;99.90;;;;;;4824465;29;20054;-75
2022/10/22 02:56:29;;;;;;;31.90;20.25;;;7.70;99.90;;;;;;4808242;29;20057;-76
2022/10/22 02:58:56;;;;;;;32.45;21.20;;;7.60;99.90;;;;;;4823490;29;20546;-77
2022/10/22 03:01:24;;;;;;;30.90;19.95;;;7.70;99.90;;;;;;4821901;29;20073;-76
2022/10/22 03:03:52;;;;;;;32.53;20.48;;;7.70;99.90;;;;;;4823124;29;20070;-77
2022/10/22 03:06:19;;;;;;;31.58;20.60;;;7.70;99.90;;;;;;4823101;29;20057;-76
2022/10/22 03:08:46;;;;;;;30.75;19.83;;;7.70;99.90;;;;;;4823453;29;20050;-76
2022/10/22 03:11:13;;;;;;;25.17;17.30;;;7.80;99.90;;;;;;4823569;29;20055;-76
2022/10/22 03:13:40;;;;;;;30.02;18.27;;;7.80;99.90;;;;;;4822924;29;20058;-76
2022/10/22 03:16:08;;;;;;;29.23;18.20;;;7.80;99.90;;;;;;4824686;29;20069;-76
2022/10/22 03:18:35;;;;;;;28.40;18.73;;;7.80;99.90;;;;;;4822110;29;20098;-76
2022/10/22 03:21:09;;;;;;;27.02;16.35;;;7.70;99.90;;;;;;4824255;29;20054;-75
2022/10/22 03:23:37;;;;;;;28.85;17.73;;;7.70;99.90;;;;;;4824165;29;20054;-78
2022/10/22 03:26:05;;;;;;;23.10;15.52;;;7.70;99.90;;;;;;4822249;29;20108;-76
2022/10/22 03:28:34;;;;;;;25.15;16.65;;;7.70;99.90;;;;;;4822938;29;20308;-77
2022/10/22 03:31:01;;;;;;;25.35;15.77;;;7.70;99.90;;;;;;4823555;29;20058;-77
2022/10/22 03:33:28;;;;;;;26.17;16.88;;;7.70;99.90;;;;;;4821492;29;20142;-76
2022/10/22 03:35:55;;;;;;;24.75;15.82;;;7.70;99.90;;;;;;4822939;29;20077;-76
2022/10/22 03:38:24;;;;;;;27.15;15.43;;;7.70;99.90;;;;;;4824064;29;20054;-77
2022/10/22 03:40:51;;;;;;;26.67;16.65;;;7.70;99.90;;;;;;4823421;29;20054;-76
2022/10/22 03:43:19;;;;;;;25.20;17.08;;;7.70;99.90;;;;;;4807134;29;20058;-76
2022/10/22 03:45:46;;;;;;;24.38;17.10;;;7.70;99.90;;;;;;4819591;29;20058;-76
2022/10/22 03:48:13;;;;;;;23.42;16.52;;;7.70;99.90;;;;;;4816499;29;20062;-76
2022/10/22 03:50:40;;;;;;;25.50;17.23;;;7.70;99.90;;;;;;4821721;29;20065;-76
2022/10/22 03:53:09;;;;;;;24.42;16.20;;;7.70;99.90;;;;;;4822711;29;20064;-76
2022/10/22 03:55:38;;;;;;;22.83;15.77;;;7.70;99.90;;;;;;4821921;29;20082;-76
2022/10/22 03:58:05;;;;;;;25.92;17.33;;;7.70;99.90;;;;;;4822082;29;20210;-76
2022/10/22 04:00:32;;;;;;;24.33;16.63;;;7.70;99.90;;;;;;4823373;29;20050;-77
2022/10/22 04:02:59;;;;;;;33.13;18.90;;;7.70;99.90;;;;;;4822249;29;20050;-75
2022/10/22 04:05:27;;;;;;;32.50;21.42;;;7.70;99.90;;;;;;4823771;29;20168;-77
2022/10/22 04:07:54;;;;;;;34.40;20.48;;;7.70;99.90;;;;;;4821536;29;20177;-76
2022/10/22 04:10:21;;;;;;;32.92;21.23;;;7.60;99.90;;;;;;4813499;29;20492;-77
2022/10/22 04:12:49;;;;;;;31.15;20.73;;;7.50;99.90;;;;;;4812929;29;20054;-77
2022/10/22 04:15:16;;;;;;;33.13;19.95;;;7.50;99.90;;;;;;4821961;29;20050;-76
2022/10/22 04:17:44;;;;;;;34.15;20.70;;;7.50;99.90;;;;;;4820960;29;20047;-77
2022/10/22 04:20:11;;;;;;;32.63;21.60;;;7.50;99.90;;;;;;4812744;29;20057;-76
2022/10/22 04:22:38;;;;;;;37.63;23.23;;;7.50;99.90;;;;;;4821231;29;20393;-76
2022/10/22 04:25:06;;;;;;;38.60;21.60;;;7.50;99.90;;;;;;4822921;29;20110;-70
2022/10/22 04:27:34;;;;;;;36.00;22.23;;;7.40;99.90;;;;;;4822465;29;20046;-69
2022/10/22 04:30:03;;;;;;;30.77;20.27;;;7.50;99.90;;;;;;4821231;29;20591;-72
2022/10/22 04:32:30;;;;;;;32.10;20.02;;;7.40;99.90;;;;;;4823258;29;20054;-73
2022/10/22 04:35:00;;;;;;;33.58;20.08;;;7.50;99.90;;;;;;4821520;29;20057;-72
2022/10/22 04:37:27;;;;;;;29.52;19.13;;;7.50;99.90;;;;;;4813094;29;20076;-73
2022/10/22 04:39:54;;;;;;;32.58;21.27;;;7.40;99.90;;;;;;4818727;29;20111;-78
2022/10/22 04:42:21;;;;;;;33.47;19.58;;;7.50;99.90;;;;;;4823483;29;20363;-78
2022/10/22 04:44:49;;;;;;;33.42;18.63;;;7.50;99.90;;;;;;4822138;29;20050;-77
2022/10/22 04:47:24;;;;;;;28.63;17.58;;;7.50;99.90;;;;;;4816333;29;20136;-77
2022/10/22 04:49:51;;;;;;;28.38;18.08;;;7.50;99.90;;;;;;4824744;29;20153;-78
2022/10/22 04:52:18;;;;;;;33.85;18.83;;;7.50;99.90;;;;;;4803598;29;20466;-73
2022/10/22 04:54:46;;;;;;;27.65;17.25;;;7.40;99.90;;;;;;4810212;29;20054;-73
2022/10/22 04:57:13;;;;;;;27.67;17.77;;;7.50;99.90;;;;;;4820184;29;20520;-74
2022/10/22 04:59:40;;;;;;;30.92;18.23;;;7.50;99.90;;;;;;4804528;29;20425;-72
2022/10/22 05:02:07;;;;;;;27.55;16.58;;;7.50;99.90;;;;;;4810098;29;20061;-73
2022/10/22 05:04:36;;;;;;;30.35;17.42;;;7.50;99.90;;;;;;4820082;29;20145;-72
2022/10/22 05:07:03;;;;;;;29.88;16.45;;;7.50;99.90;;;;;;4814086;29;20077;-73
2022/10/22 05:09:30;;;;;;;28.00;17.35;;;7.50;99.90;;;;;;4820252;29;20472;-73
2022/10/22 05:11:58;;;;;;;25.77;15.38;;;7.50;99.90;;;;;;4821284;29;20062;-73
2022/10/22 05:14:26;;;;;;;28.38;17.35;;;7.60;99.90;;;;;;4822484;29;20504;-73
2022/10/22 05:16:53;;;;;;;31.92;17.13;;;7.50;99.90;;;;;;4821348;29;20126;-69
2022/10/22 05:19:23;;;;;;;28.10;16.38;;;7.50;99.90;;;;;;4822111;29;20042;-71
2022/10/22 05:21:52;;;;;;;31.10;15.95;;;7.50;99.90;;;;;;4821869;29;20038;-72
2022/10/22 05:24:19;;;;;;;35.63;18.88;;;7.50;99.90;;;;;;4820683;29;20054;-71
2022/10/22 05:26:49;;;;;;;32.67;18.15;;;7.50;99.90;;;;;;4821640;29;20065;-73
2022/10/22 05:29:16;;;;;;;30.98;17.25;;;7.50;99.90;;;;;;4804939;29;20061;-72
2022/10/22 05:31:43;;;;;;;30.10;17.05;;;7.60;99.90;;;;;;4819561;29;20058;-72
2022/10/22 05:34:10;;;;;;;33.15;18.23;;;7.60;99.90;;;;;;4818909;29;20058;-72
2022/10/22 05:36:37;;;;;;;34.08;17.17;;;7.60;99.90;;;;;;4817903;29;20085;-72
2022/10/22 05:39:06;;;;;;;30.02;16.17;;;7.60;99.90;;;;;;4819631;29;20052;-72
2022/10/22 05:41:35;;;;;;;32.15;16.80;;;7.50;99.90;;;;;;4819273;29;20064;-75
2022/10/22 05:44:03;;;;;;;37.95;16.95;;;7.60;99.90;;;;;;4820575;29;20054;-71
2022/10/22 05:46:34;;;;;;;28.83;16.83;;;7.50;99.90;;;;;;4821674;29;20528;-72
2022/10/22 05:49:03;;;;;;;32.88;16.65;;;7.50;99.90;;;;;;4820730;29;20055;-72
2022/10/22 05:51:32;;;;;;;32.10;15.45;;;7.50;99.90;;;;;;4820848;29;20086;-73
2022/10/22 05:54:01;;;;;;;34.30;16.20;;;7.50;99.90;;;;;;4819116;29;20050;-72
2022/10/22 05:56:31;;;;;;;31.52;15.80;;;7.50;99.90;;;;;;4814422;29;20535;-72
2022/10/22 05:58:58;;;;;;;39.20;17.52;;;7.50;99.90;;;;;;4822554;29;20648;-71
2022/10/22 06:01:27;;;;;;;36.38;15.90;;;7.50;99.90;;;;;;4820776;29;20054;-78
2022/10/22 06:03:56;;;;;;;37.25;15.07;;;7.50;99.90;;;;;;4821536;29;20103;-79
2022/10/22 06:06:28;;;;;;;31.73;15.65;;;7.50;99.90;;;;;;4819535;29;20062;-79
2022/10/22 06:08:59;;;;;;;35.80;14.77;;;7.50;99.90;;;;;;4815224;29;20053;-78
2022/10/22 06:11:26;;;;;;;35.90;14.80;;;7.60;99.90;;;;;;4801740;29;20594;-80
2022/10/22 06:13:55;;;;;;;35.75;13.95;;;7.60;99.90;;;;;;4805133;29;20062;-77
2022/10/22 06:16:22;;;;;;;34.03;14.43;;;7.70;99.90;;;;;;4823410;29;20110;-77
2022/10/22 06:18:49;;;;;;;28.20;14.20;;;7.70;99.90;;;;;;4819575;29;20050;-73
2022/10/22 06:21:16;;;;;;;27.98;14.00;;;7.80;99.90;;;;;;4820557;29;20063;-73
2022/10/22 06:23:44;;;;;;;19.63;11.90;;;7.80;99.90;;;;;;4821757;29;20111;-72
2022/10/22 06:26:11;;;;;;;18.70;12.20;;;7.80;99.90;;;;;;4820950;29;20057;-72
2022/10/22 06:28:39;;;;;;;26.52;12.05;;;7.90;99.90;;;;;;4801825;29;20073;-72
2022/10/22 06:31:07;;;;;;;24.35;12.80;;;7.90;99.90;;;;;;4802018;29;20118;-71
2022/10/22 06:33:41;;;;;;;26.52;11.65;;;7.90;99.90;;;;;;4802220;29;20150;-73
2022/10/22 06:36:11;;;;;;;21.40;10.57;;;8.00;99.90;;;;;;4802177;29;20059;-72
2022/10/22 06:38:39;;;;;;;17.35;9.70;;;8.00;99.90;;;;;;4802639;29;20051;-77
2022/10/22 06:41:08;;;;;;;22.48;11.30;;;8.10;99.90;;;;;;4803992;29;20061;-78
2022/10/22 06:43:35;;;;;;;19.05;10.20;;;8.20;99.90;;;;;;4803899;29;20139;-77
2022/10/22 06:46:04;;;;;;;19.35;9.23;;;8.20;99.90;;;;;;4804825;29;20684;-78
2022/10/22 06:48:34;;;;;;;17.00;9.18;;;8.30;99.90;;;;;;4819814;29;20595;-72
2022/10/22 06:51:02;;;;;;;21.23;10.15;;;8.40;99.90;;;;;;4821559;29;20056;-72
2022/10/22 06:53:30;;;;;;;22.75;10.48;;;8.40;99.90;;;;;;4821149;29;20058;-71
2022/10/22 06:55:57;;;;;;;17.40;9.85;;;8.40;99.90;;;;;;4821228;29;20152;-71
2022/10/22 06:58:25;;;;;;;26.65;9.98;;;8.40;99.90;;;;;;4820208;29;20652;-75
2022/10/22 07:01:01;;;;;;;22.65;9.98;;;8.40;99.90;;;;;;4819914;29;20053;-73
2022/10/22 07:03:28;;;;;;;16.92;9.27;;;8.40;99.90;;;;;;4821286;29;20061;-72
2022/10/22 07:05:59;;;;;;;26.15;9.55;;;8.30;99.90;;;;;;4820035;29;20064;-73
2022/10/22 07:08:26;;;;;;;16.30;8.98;;;8.30;99.90;;;;;;4820973;29;20141;-73
2022/10/22 07:10:53;;;;;;;24.77;11.52;;;8.40;99.90;;;;;;4824488;29;20050;-73
2022/10/22 07:13:20;;;;;;;18.00;9.52;;;8.40;99.90;;;;;;4823344;29;20058;-73
2022/10/22 07:15:52;;;;;;;19.33;8.85;;;8.40;99.90;;;;;;4800798;29;20060;-71
2022/10/22 07:18:19;;;;;;;19.10;10.30;;;8.50;99.90;;;;;;4808934;29;20055;-73
2022/10/22 07:20:47;;;;;;;18.73;9.70;;;8.50;99.90;;;;;;4825815;29;20144;-72
2022/10/22 07:23:17;;;;;;;21.85;10.63;;;8.60;99.90;;;;;;4825970;29;20103;-76
2022/10/22 07:25:44;;;;;;;24.33;9.82;;;8.60;99.90;;;;;;4813242;29;20267;-76
2022/10/22 07:28:12;;;;;;;19.38;9.32;;;8.70;99.90;;;;;;4812899;29;20055;-77
2022/10/22 07:30:39;;;;;;;19.63;9.43;;;8.80;99.90;;;;;;4805894;29;20107;-77
2022/10/22 07:33:11;;;;;;;16.10;9.63;;;8.90;99.90;;;;;;4819510;29;20458;-78
2022/10/22 07:35:39;;;;;;;11.70;7.57;;;8.90;99.90;;;;;;4821920;29;20058;-77
2022/10/22 07:38:08;;;;;;;14.65;8.20;;;9.00;99.90;;;;;;4822746;29;20343;-76
2022/10/22 07:40:36;;;;;;;17.90;9.82;;;8.90;99.90;;;;;;4820452;29;20452;-78
2022/10/22 07:43:04;;;;;;;13.20;8.18;;;8.90;99.90;;;;;;4814098;29;20102;-76
2022/10/22 07:45:32;;;;;;;14.43;8.60;;;8.80;99.90;;;;;;4820552;29;20055;-76
2022/10/22 07:48:00;;;;;;;16.10;8.35;;;8.70;99.90;;;;;;4819809;29;20069;-75
2022/10/22 07:50:27;;;;;;;10.27;7.47;;;8.80;99.90;;;;;;4822647;29;20051;-76
2022/10/22 07:52:55;;;;;;;11.82;8.13;;;8.90;99.90;;;;;;4824588;29;20153;-72
2022/10/22 07:55:22;;;;;;;12.35;8.20;;;9.00;99.90;;;;;;4821679;29;20054;-72
2022/10/22 07:57:50;;;;;;;17.00;7.78;;;9.00;99.90;;;;;;4817635;29;20054;-74
2022/10/22 08:00:18;;;;;;;10.40;7.55;;;9.20;99.90;;;;;;4806313;29;20504;-72
2022/10/22 08:02:46;;;;;;;13.80;8.18;;;9.70;99.90;;;;;;4822715;29;20058;-72
2022/10/22 08:05:13;;;;;;;11.30;8.57;;;10.10;99.90;;;;;;4813149;29;20058;-73
2022/10/22 08:07:40;;;;;;;20.67;8.25;;;10.10;99.90;;;;;;4821533;29;20433;-73
2022/10/22 08:10:09;;;;;;;16.50;8.50;;;10.10;99.90;;;;;;4822978;29;20137;-73
2022/10/22 08:12:36;;;;;;;16.17;7.57;;;10.20;99.90;;;;;;4822364;29;20062;-73
2022/10/22 08:15:06;;;;;;;12.10;7.93;;;10.20;99.90;;;;;;4815788;29;20051;-74
2022/10/22 08:17:33;;;;;;;13.57;7.90;;;10.20;99.90;;;;;;4817706;29;20050;-74
2022/10/22 08:20:00;;;;;;;12.60;7.00;;;10.10;99.90;;;;;;4810439;29;20051;-72
2022/10/22 08:22:27;;;;;;;11.10;7.03;;;10.20;99.90;;;;;;4814859;29;20533;-74
2022/10/22 08:24:54;;;;;;;9.85;7.15;;;10.30;99.90;;;;;;4821739;29;20050;-73
2022/10/22 08:27:22;;;;;;;11.07;6.55;;;10.30;99.90;;;;;;4820295;29;20057;-72
2022/10/22 08:29:49;;;;;;;8.57;6.45;;;10.40;99.90;;;;;;4822575;29;20085;-72
2022/10/22 08:32:18;;;;;;;9.68;6.60;;;10.50;99.90;;;;;;4821651;29;20061;-71
2022/10/22 08:34:45;;;;;;;11.30;6.43;;;10.60;99.90;;;;;;4821741;29;20069;-72
2022/10/22 08:37:13;;;;;;;6.28;5.50;;;10.60;99.90;;;;;;4820777;29;20450;-78
2022/10/22 08:39:40;;;;;;;9.70;4.85;;;10.60;99.90;;;;;;4815478;29;20054;-77
2022/10/22 08:42:38;;;;;;;9.77;5.63;;;10.60;99.90;;;;;;4812422;29;20143;-76
2022/10/22 08:45:13;;;;;;;7.50;6.10;;;10.60;99.90;;;;;;4812295;29;20050;-73
2022/10/22 08:48:07;;;;;;;7.18;5.57;;;10.60;99.90;;;;;;4809738;29;20446;-71
2022/10/22 08:50:39;;;;;;;5.93;5.30;;;10.50;99.90;;;;;;4809653;29;20427;-73
2022/10/22 08:53:12;;;;;;;7.43;5.38;;;10.60;99.90;;;;;;4812264;29;20055;-71
2022/10/22 08:55:40;;;;;;;11.57;5.90;;;10.50;99.90;;;;;;4814061;29;20599;-72
2022/10/22 08:58:19;;;;;;;6.50;5.57;;;10.40;99.90;;;;;;4816068;29;20069;-72
2022/10/22 09:00:52;;;;;;;7.40;5.88;;;10.40;99.90;;;;;;4812482;29;20050;-70
2022/10/22 09:03:42;;;;;;;5.38;4.88;;;10.30;99.90;;;;;;4815437;29;20050;-78
2022/10/22 09:06:12;;;;;;;8.73;6.65;;;10.30;99.90;;;;;;4821844;29;20054;-78
2022/10/22 09:08:41;;;;;;;8.80;4.43;;;10.30;99.90;;;;;;4822486;29;20506;-78
2022/10/22 09:11:22;;;;;;;9.20;5.10;;;10.30;99.90;;;;;;4830316;29;20082;-78
2022/10/22 09:13:52;;;;;;;7.20;5.05;;;10.30;99.90;;;;;;4826535;29;20058;-76
2022/10/22 09:16:26;;;;;;;5.18;4.68;;;10.40;99.90;;;;;;4829188;29;20056;-78
2022/10/22 09:19:05;;;;;;;7.10;4.72;;;10.40;99.90;;;;;;4814986;29;20054;-77
2022/10/22 09:21:44;;;;;;;8.73;4.45;;;10.40;99.90;;;;;;4833887;29;20085;-78
2022/10/22 09:24:16;;;;;;;7.90;5.32;;;10.40;99.90;;;;;;4835744;29;21186;-82
2022/10/22 09:26:43;;;;;;;9.25;4.68;;;10.50;99.90;;;;;;4835101;29;20054;-81
2022/10/22 09:29:19;;;;;;;8.43;5.22;;;10.50;99.90;;;;;;4835263;29;20057;-82
2022/10/22 09:31:46;;;;;;;6.30;5.05;;;10.40;99.90;;;;;;4833861;29;20126;-81
2022/10/22 09:34:19;;;;;;;6.55;4.72;;;10.30;99.90;;;;;;4834260;29;20057;-80
2022/10/22 09:36:47;;;;;;;6.68;4.50;;;10.30;99.90;;;;;;4831159;29;20168;-80
2022/10/22 09:39:25;;;;;;;13.27;5.15;;;10.30;99.90;;;;;;4835092;29;20051;-80
2022/10/22 09:41:53;;;;;;;7.68;4.78;;;10.30;99.90;;;;;;4821253;29;20537;-80
2022/10/22 09:44:21;;;;;;;4.78;4.32;;;10.40;99.90;;;;;;4837851;29;20062;-81
2022/10/22 09:46:48;;;;;;;10.98;4.70;;;10.50;99.90;;;;;;4837897;29;20054;-79
2022/10/22 09:49:18;;;;;;;6.57;4.05;;;10.60;99.90;;;;;;4833602;29;20110;-74
2022/10/22 09:51:51;;;;;;;6.60;3.40;;;10.50;99.90;;;;;;4833009;29;20450;-76
2022/10/22 09:54:20;;;;;;;5.95;3.65;;;10.40;99.90;;;;;;4826353;29;20053;-74
2022/10/22 09:56:52;;;;;;;3.80;3.50;;;10.40;99.90;;;;;;4834178;29;20062;-75
2022/10/22 09:59:27;;;;;;;3.47;3.17;;;10.40;99.90;;;;;;4830824;29;20058;-75
2022/10/22 10:02:00;;;;;;;4.38;3.47;;;10.50;99.90;;;;;;4833089;29;20065;-74
2022/10/22 10:04:34;;;;;;;4.65;4.25;;;10.50;99.90;;;;;;4834896;29;20053;-74
2022/10/22 10:07:01;;;;;;;5.60;4.00;;;10.50;99.90;;;;;;4832055;29;20062;-75
2022/10/22 10:09:31;;;;;;;4.10;3.67;;;10.40;99.90;;;;;;4834768;29;20052;-74
2022/10/22 10:12:06;;;;;;;5.55;4.30;;;10.50;99.90;;;;;;4836248;29;20053;-74
2022/10/22 10:14:45;;;;;;;7.85;3.85;;;10.50;99.90;;;;;;4834031;29;20148;-74
2022/10/22 10:17:23;;;;;;;5.68;4.57;;;10.50;99.90;;;;;;4836002;29;20111;-77
2022/10/22 10:20:00;;;;;;;4.43;4.03;;;10.60;99.90;;;;;;4836633;29;20064;-75
2022/10/22 10:22:41;;;;;;;6.47;4.15;;;10.60;99.90;;;;;;4835678;29;20507;-76
2022/10/22 10:25:30;;;;;;;9.15;4.00;;;10.70;99.90;;;;;;4829404;29;20463;-74
2022/10/22 10:28:09;;;;;;;5.45;3.90;;;10.70;99.90;;;;;;4830481;29;20061;-75
2022/10/22 10:30:42;;;;;;;6.60;3.75;;;10.60;99.90;;;;;;4836146;29;20082;-75
2022/10/22 10:33:23;;;;;;;7.32;3.75;;;10.60;99.90;;;;;;4833065;29;20054;-74
2022/10/22 10:36:01;;;;;;;7.32;3.42;;;10.50;99.90;;;;;;4827483;29;20050;-74
2022/10/22 10:38:51;;;;;;;6.22;3.10;;;10.60;99.90;;;;;;4830830;29;20061;-79
2022/10/22 10:41:26;;;;;;;2.90;2.58;;;10.60;99.90;;;;;;4834439;29;20503;-79
2022/10/22 10:44:13;;;;;;;4.97;2.35;;;10.50;99.90;;;;;;4832527;29;20525;-80
2022/10/22 10:46:47;;;;;;;3.22;2.50;;;10.50;99.90;;;;;;4836926;29;20093;-74
2022/10/22 10:49:20;;;;;;;3.97;3.00;;;10.50;99.90;;;;;;4835779;29;20146;-74
2022/10/22 10:51:56;;;;;;;3.85;2.97;;;10.40;99.90;;;;;;4828511;29;20710;-75
2022/10/22 10:54:35;;;;;;;4.93;2.95;;;10.40;99.90;;;;;;4830515;29;20085;-75
2022/10/22 10:57:11;;;;;;;7.13;3.55;;;10.50;99.90;;;;;;4848916;29;20153;-80
2022/10/22 10:59:54;;;;;;;3.50;3.20;;;10.40;99.90;;;;;;4832786;29;20050;-78
2022/10/22 11:06:20;;;;;;;6.70;4.60;;;10.40;99.90;;;;;;4857955;29;19924;-77
2022/10/22 11:08:55;;;;;;;6.30;2.80;;;10.50;99.90;;;;;;4857373;29;20068;-77
2022/10/22 11:11:30;;;;;;;11.20;3.17;;;10.50;99.90;;;;;;4854540;29;20056;-77
2022/10/22 11:14:02;;;;;;;3.60;3.30;;;10.50;99.90;;;;;;4847612;29;20156;-77
2022/10/22 11:16:35;;;;;;;4.43;3.03;;;10.50;99.90;;;;;;4857821;29;20054;-76
2022/10/22 11:19:08;;;;;;;6.10;2.67;;;10.50;99.90;;;;;;4857032;29;20145;-77
2022/10/22 11:21:40;;;;;;;;;;;10.40;99.90;;;;;;4852062;29;20060;-82
2022/10/22 11:24:18;;;;;;;5.38;2.78;;;10.40;99.90;;;;;;4845745;29;19928;-82
2022/10/22 11:26:49;;;;;;;3.15;2.63;;;10.40;99.90;;;;;;4855469;29;20049;-85
2022/10/22 11:29:25;;;;;;;4.18;2.50;;;10.30;99.90;;;;;;4853926;29;20076;-82
2022/10/22 11:31:55;;;;;;;2.83;2.40;;;10.30;99.90;;;;;;4856596;29;20070;-81
2022/10/22 11:34:28;;;;;;;4.43;2.60;;;10.30;99.90;;;;;;4842498;29;20053;-81
2022/10/22 11:36:56;;;;;;;3.78;2.53;;;10.30;99.90;;;;;;4855895;29;20159;-85
2022/10/22 11:39:37;;;;;;;3.13;2.22;;;10.30;99.90;;;;;;4852108;29;20083;-80
2022/10/22 11:42:09;;;;;;;3.65;2.80;;;10.30;99.90;;;;;;4851883;29;20494;-81
2022/10/22 11:45:12;;;;;;;5.00;2.95;;;10.50;99.90;;;;;;4853936;29;20132;-80
2022/10/22 11:47:59;;;;;;;8.13;3.10;;;10.60;99.90;;;;;;4852651;29;20069;-79
2022/10/22 11:50:28;;;;;;;3.20;2.28;;;10.70;99.90;;;;;;4850427;29;21971;-80
2022/10/22 11:53:06;;;;;;;3.40;2.30;;;10.70;99.90;;;;;;4854728;29;20069;-78
2022/10/22 11:55:46;;;;;;;3.42;2.38;;;10.70;99.90;;;;;;4839446;29;20153;-79
2022/10/22 11:58:46;;;;;;;5.30;2.45;;;10.70;99.90;;;;;;4854173;29;20106;-77
2022/10/22 12:01:22;;;;;;;4.38;2.20;;;10.60;99.90;;;;;;4760637;30;20449;-81
2022/10/22 12:03:52;;;;;;;2.85;2.33;;;10.60;99.90;;;;;;4836353;29;20071;-82
2022/10/22 12:06:23;;;;;;;4.38;2.45;;;10.70;99.90;;;;;;4850699;29;20515;-81
2022/10/22 12:09:10;;;;;;;4.65;2.83;;;10.70;99.90;;;;;;4851388;29;20136;-83
2022/10/22 12:11:47;;;;;;;3.35;2.20;;;10.70;99.90;;;;;;4858187;29;20053;-86
2022/10/22 12:14:20;;;;;;;4.15;2.17;;;10.80;99.90;;;;;;4859630;29;20056;-84
2022/10/22 12:16:52;;;;;;;4.35;2.20;;;10.80;99.90;;;;;;4865095;29;20173;-83
2022/10/22 12:19:27;;;;;;;4.28;2.20;;;10.70;99.90;;;;;;4859918;29;20056;-85
2022/10/22 12:21:58;;;;;;;10.63;2.65;;;10.70;99.90;;;;;;4856207;29;20647;-85
2022/10/22 12:24:30;;;;;;;9.77;2.70;;;10.50;99.90;;;;;;4860005;29;20506;-82
2022/10/22 12:26:59;;;;;;;5.27;2.37;;;10.50;99.90;;;;;;4841793;29;20097;-81
2022/10/22 12:29:27;;;;;;;7.70;2.90;;;10.60;99.90;;;;;;4858659;29;20476;-82
2022/10/22 12:31:55;;;;;;;6.55;2.80;;;10.50;99.90;;;;;;4855817;29;20079;-82
2022/10/22 12:34:24;;;;;;;4.65;3.20;;;10.40;99.90;;;;;;4855564;29;20053;-81
2022/10/22 12:36:53;;;;;;;4.63;3.08;;;10.30;99.90;;;;;;4849621;29;20120;-81
2022/10/22 12:39:23;;;;;;;4.18;3.65;;;10.20;99.90;;;;;;4844612;29;20094;-81
2022/10/22 12:41:51;;;;;;;5.07;3.10;;;10.00;99.90;;;;;;4855849;29;20058;-79
2022/10/22 12:44:21;;;;;;;8.32;3.30;;;9.90;99.90;;;;;;4853746;29;20053;-81
2022/10/22 12:46:52;;;;;;;4.03;3.33;;;9.80;99.90;;;;;;4855765;29;20073;-81
2022/10/22 12:49:22;;;;;;;9.63;3.75;;;9.70;99.90;;;;;;4834657;29;20522;-82
2022/10/22 12:51:53;;;;;;;4.22;3.42;;;9.60;99.90;;;;;;4849073;29;20585;-82
2022/10/22 12:54:26;;;;;;;4.50;3.53;;;9.60;99.90;;;;;;4847624;29;20056;-81
2022/10/22 12:56:57;;;;;;;6.07;4.00;;;9.60;99.90;;;;;;4847224;29;20556;-82
2022/10/22 12:59:28;;;;;;;7.95;4.50;;;9.50;99.90;;;;;;4848926;29;20049;-79
2022/10/22 13:01:56;;;;;;;7.97;4.72;;;9.40;99.90;;;;;;4853586;29;20136;-82
2022/10/22 13:04:33;;;;;;;5.05;4.40;;;9.30;99.90;;;;;;4856886;29;20061;-82